sensor_id;sensor_type;location;lat;lon;timestamp;P1;durP1;ratioP1;P2;durP2;ratioP2
46845;SDS011;33947;46.804;134.252;2023-07-08T00:01:33;14.52;;;4.40;;
46845;SDS011;33947;46.804;134.252;2023-07-08T00:04:39;7.88;;;4.38;;
46845;SDS011;33947;46.804;134.252;2023-07-08T00:07:48;9.20;;;4.07;;
46845;SDS011;33947;46.804;134.252;2023-07-08T00:10:55;5.95;;;3.78;;
46845;SDS011;33947;46.804;134.252;2023-07-08T00:14:02;8.98;;;4.18;;
46845;SDS011;33947;46.804;134.252;2023-07-08T00:17:10;9.25;;;4.40;;
46845;SDS011;33947;46.804;134.252;2023-07-08T00:20:22;11.85;;;4.80;;
46845;SDS011;33947;46.804;134.252;2023-07-08T00:23:37;17.33;;;6.55;;
46845;SDS011;33947;46.804;134.252;2023-07-08T00:26:44;11.48;;;4.55;;
46845;SDS011;33947;46.804;134.252;2023-07-08T00:29:50;11.07;;;4.95;;
46845;SDS011;33947;46.804;134.252;2023-07-08T00:32:57;10.70;;;5.22;;
46845;SDS011;33947;46.804;134.252;2023-07-08T00:36:08;7.28;;;4.20;;
46845;SDS011;33947;46.804;134.252;2023-07-08T00:39:18;9.38;;;4.70;;
46845;SDS011;33947;46.804;134.252;2023-07-08T00:42:24;7.18;;;4.53;;
46845;SDS011;33947;46.804;134.252;2023-07-08T00:45:35;8.05;;;4.32;;
46845;SDS011;33947;46.804;134.252;2023-07-08T00:52:17;7.07;;;4.18;;
46845;SDS011;33947;46.804;134.252;2023-07-08T00:55:26;6.68;;;3.58;;
46845;SDS011;33947;46.804;134.252;2023-07-08T00:58:32;10.40;;;3.40;;
46845;SDS011;33947;46.804;134.252;2023-07-08T01:01:41;6.78;;;3.88;;
46845;SDS011;33947;46.804;134.252;2023-07-08T01:07:59;6.70;;;2.55;;
46845;SDS011;33947;46.804;134.252;2023-07-08T01:11:09;5.22;;;2.40;;
46845;SDS011;33947;46.804;134.252;2023-07-08T01:14:17;6.70;;;2.63;;
46845;SDS011;33947;46.804;134.252;2023-07-08T01:17:27;4.45;;;3.20;;
46845;SDS011;33947;46.804;134.252;2023-07-08T01:20:39;3.78;;;3.00;;
46845;SDS011;33947;46.804;134.252;2023-07-08T01:23:45;4.60;;;2.88;;
46845;SDS011;33947;46.804;134.252;2023-07-08T01:26:52;6.20;;;2.60;;
46845;SDS011;33947;46.804;134.252;2023-07-08T01:29:59;5.03;;;2.83;;
46845;SDS011;33947;46.804;134.252;2023-07-08T01:33:15;3.75;;;2.80;;
46845;SDS011;33947;46.804;134.252;2023-07-08T01:36:34;4.43;;;2.65;;
46845;SDS011;33947;46.804;134.252;2023-07-08T01:39:47;4.03;;;2.60;;
46845;SDS011;33947;46.804;134.252;2023-07-08T01:42:53;7.47;;;2.85;;
46845;SDS011;33947;46.804;134.252;2023-07-08T01:46:00;4.72;;;2.53;;
46845;SDS011;33947;46.804;134.252;2023-07-08T01:49:09;7.55;;;2.90;;
46845;SDS011;33947;46.804;134.252;2023-07-08T01:52:16;8.30;;;3.05;;
46845;SDS011;33947;46.804;134.252;2023-07-08T01:55:24;7.93;;;3.72;;
46845;SDS011;33947;46.804;134.252;2023-07-08T01:58:30;5.85;;;2.70;;
46845;SDS011;33947;46.804;134.252;2023-07-08T02:01:37;6.05;;;2.65;;
46845;SDS011;33947;46.804;134.252;2023-07-08T02:04:43;5.40;;;2.70;;
46845;SDS011;33947;46.804;134.252;2023-07-08T02:07:50;3.85;;;2.50;;
46845;SDS011;33947;46.804;134.252;2023-07-08T02:10:57;4.50;;;2.63;;
46845;SDS011;33947;46.804;134.252;2023-07-08T02:14:11;5.53;;;2.35;;
46845;SDS011;33947;46.804;134.252;2023-07-08T02:17:18;4.93;;;2.38;;
46845;SDS011;33947;46.804;134.252;2023-07-08T02:20:45;5.57;;;2.47;;
46845;SDS011;33947;46.804;134.252;2023-07-08T02:23:52;5.22;;;2.55;;
46845;SDS011;33947;46.804;134.252;2023-07-08T02:26:58;4.43;;;2.28;;
46845;SDS011;33947;46.804;134.252;2023-07-08T02:30:05;6.25;;;2.92;;
46845;SDS011;33947;46.804;134.252;2023-07-08T02:33:13;7.85;;;2.22;;
46845;SDS011;33947;46.804;134.252;2023-07-08T02:36:22;3.50;;;2.10;;
46845;SDS011;33947;46.804;134.252;2023-07-08T02:39:29;4.88;;;2.38;;
46845;SDS011;33947;46.804;134.252;2023-07-08T02:42:35;6.68;;;2.58;;
46845;SDS011;33947;46.804;134.252;2023-07-08T02:45:42;9.07;;;2.88;;
46845;SDS011;33947;46.804;134.252;2023-07-08T02:48:48;6.45;;;2.42;;
46845;SDS011;33947;46.804;134.252;2023-07-08T02:51:54;5.45;;;2.40;;
46845;SDS011;33947;46.804;134.252;2023-07-08T02:55:01;4.00;;;2.20;;
46845;SDS011;33947;46.804;134.252;2023-07-08T02:58:07;4.80;;;2.45;;
46845;SDS011;33947;46.804;134.252;2023-07-08T03:01:16;4.65;;;2.33;;
46845;SDS011;33947;46.804;134.252;2023-07-08T03:04:23;7.85;;;2.40;;
46845;SDS011;33947;46.804;134.252;2023-07-08T03:07:30;4.28;;;2.05;;
46845;SDS011;33947;46.804;134.252;2023-07-08T03:10:37;6.90;;;2.10;;
46845;SDS011;33947;46.804;134.252;2023-07-08T03:13:43;4.88;;;2.42;;
46845;SDS011;33947;46.804;134.252;2023-07-08T03:16:49;4.82;;;2.40;;
46845;SDS011;33947;46.804;134.252;2023-07-08T03:19:56;5.93;;;2.10;;
46845;SDS011;33947;46.804;134.252;2023-07-08T03:23:02;5.43;;;2.25;;
46845;SDS011;33947;46.804;134.252;2023-07-08T03:26:16;4.88;;;2.22;;
46845;SDS011;33947;46.804;134.252;2023-07-08T03:29:26;4.15;;;2.20;;
46845;SDS011;33947;46.804;134.252;2023-07-08T03:32:32;4.50;;;2.45;;
46845;SDS011;33947;46.804;134.252;2023-07-08T03:35:39;5.45;;;2.35;;
46845;SDS011;33947;46.804;134.252;2023-07-08T03:38:46;7.55;;;2.40;;
46845;SDS011;33947;46.804;134.252;2023-07-08T03:41:53;5.93;;;2.03;;
46845;SDS011;33947;46.804;134.252;2023-07-08T03:45:00;5.80;;;2.20;;
46845;SDS011;33947;46.804;134.252;2023-07-08T03:48:08;7.40;;;2.15;;
46845;SDS011;33947;46.804;134.252;2023-07-08T03:51:22;3.22;;;2.03;;
46845;SDS011;33947;46.804;134.252;2023-07-08T03:54:31;4.53;;;2.22;;
46845;SDS011;33947;46.804;134.252;2023-07-08T03:57:36;6.13;;;2.35;;
46845;SDS011;33947;46.804;134.252;2023-07-08T04:03:48;7.68;;;2.58;;
46845;SDS011;33947;46.804;134.252;2023-07-08T04:06:56;6.40;;;2.47;;
46845;SDS011;33947;46.804;134.252;2023-07-08T04:10:02;3.28;;;2.30;;
46845;SDS011;33947;46.804;134.252;2023-07-08T04:13:09;5.28;;;2.25;;
46845;SDS011;33947;46.804;134.252;2023-07-08T04:16:20;3.95;;;2.40;;
46845;SDS011;33947;46.804;134.252;2023-07-08T04:22:37;5.57;;;2.22;;
46845;SDS011;33947;46.804;134.252;2023-07-08T04:25:43;7.75;;;2.53;;
46845;SDS011;33947;46.804;134.252;2023-07-08T04:28:50;8.43;;;2.67;;
46845;SDS011;33947;46.804;134.252;2023-07-08T04:31:59;4.97;;;2.20;;
46845;SDS011;33947;46.804;134.252;2023-07-08T04:35:05;4.95;;;2.20;;
46845;SDS011;33947;46.804;134.252;2023-07-08T04:38:23;5.43;;;2.58;;
46845;SDS011;33947;46.804;134.252;2023-07-08T04:41:30;10.20;;;2.60;;
46845;SDS011;33947;46.804;134.252;2023-07-08T04:44:36;6.30;;;2.92;;
46845;SDS011;33947;46.804;134.252;2023-07-08T04:47:43;3.17;;;2.10;;
46845;SDS011;33947;46.804;134.252;2023-07-08T04:50:52;7.68;;;2.30;;
46845;SDS011;33947;46.804;134.252;2023-07-08T04:53:59;7.32;;;3.03;;
46845;SDS011;33947;46.804;134.252;2023-07-08T04:57:05;4.22;;;2.30;;
46845;SDS011;33947;46.804;134.252;2023-07-08T05:00:15;8.90;;;2.22;;
46845;SDS011;33947;46.804;134.252;2023-07-08T05:03:22;5.10;;;2.15;;
46845;SDS011;33947;46.804;134.252;2023-07-08T05:06:28;6.88;;;2.20;;
46845;SDS011;33947;46.804;134.252;2023-07-08T05:09:35;8.57;;;2.35;;
46845;SDS011;33947;46.804;134.252;2023-07-08T05:12:41;8.55;;;2.97;;
46845;SDS011;33947;46.804;134.252;2023-07-08T05:15:48;4.95;;;2.42;;
46845;SDS011;33947;46.804;134.252;2023-07-08T05:18:54;5.65;;;2.33;;
46845;SDS011;33947;46.804;134.252;2023-07-08T05:21:59;8.63;;;2.50;;
46845;SDS011;33947;46.804;134.252;2023-07-08T05:25:06;13.02;;;6.30;;
46845;SDS011;33947;46.804;134.252;2023-07-08T05:28:13;9.90;;;3.03;;
46845;SDS011;33947;46.804;134.252;2023-07-08T05:31:19;13.90;;;3.17;;
46845;SDS011;33947;46.804;134.252;2023-07-08T05:34:30;4.15;;;2.70;;
46845;SDS011;33947;46.804;134.252;2023-07-08T05:37:36;4.20;;;2.20;;
46845;SDS011;33947;46.804;134.252;2023-07-08T05:40:48;4.18;;;2.75;;
46845;SDS011;33947;46.804;134.252;2023-07-08T05:43:56;6.03;;;2.50;;
46845;SDS011;33947;46.804;134.252;2023-07-08T05:47:02;5.32;;;2.20;;
46845;SDS011;33947;46.804;134.252;2023-07-08T05:50:09;11.95;;;3.35;;
46845;SDS011;33947;46.804;134.252;2023-07-08T05:53:17;5.30;;;2.13;;
46845;SDS011;33947;46.804;134.252;2023-07-08T05:56:25;3.75;;;2.08;;
46845;SDS011;33947;46.804;134.252;2023-07-08T05:59:31;9.40;;;2.35;;
46845;SDS011;33947;46.804;134.252;2023-07-08T06:02:39;5.88;;;2.20;;
46845;SDS011;33947;46.804;134.252;2023-07-08T06:05:49;4.63;;;2.30;;
46845;SDS011;33947;46.804;134.252;2023-07-08T06:08:56;6.07;;;2.42;;
46845;SDS011;33947;46.804;134.252;2023-07-08T06:12:02;6.07;;;2.05;;
46845;SDS011;33947;46.804;134.252;2023-07-08T06:15:14;6.65;;;2.50;;
46845;SDS011;33947;46.804;134.252;2023-07-08T06:18:21;6.95;;;2.67;;
46845;SDS011;33947;46.804;134.252;2023-07-08T06:21:25;6.25;;;2.30;;
46845;SDS011;33947;46.804;134.252;2023-07-08T06:24:30;8.30;;;2.78;;
46845;SDS011;33947;46.804;134.252;2023-07-08T06:27:37;4.65;;;2.25;;
46845;SDS011;33947;46.804;134.252;2023-07-08T06:30:43;4.45;;;2.20;;
46845;SDS011;33947;46.804;134.252;2023-07-08T06:33:52;5.07;;;1.98;;
46845;SDS011;33947;46.804;134.252;2023-07-08T06:36:59;4.95;;;2.45;;
46845;SDS011;33947;46.804;134.252;2023-07-08T06:40:05;4.03;;;2.05;;
46845;SDS011;33947;46.804;134.252;2023-07-08T06:43:15;7.38;;;1.90;;
46845;SDS011;33947;46.804;134.252;2023-07-08T06:46:32;3.65;;;2.28;;
46845;SDS011;33947;46.804;134.252;2023-07-08T06:49:43;20.42;;;3.10;;
46845;SDS011;33947;46.804;134.252;2023-07-08T06:52:52;3.28;;;1.92;;
46845;SDS011;33947;46.804;134.252;2023-07-08T06:55:59;4.30;;;2.17;;
46845;SDS011;33947;46.804;134.252;2023-07-08T06:59:06;6.50;;;1.90;;
46845;SDS011;33947;46.804;134.252;2023-07-08T07:02:14;3.78;;;2.03;;
46845;SDS011;33947;46.804;134.252;2023-07-08T07:05:22;4.90;;;2.10;;
46845;SDS011;33947;46.804;134.252;2023-07-08T07:08:31;14.32;;;2.40;;
46845;SDS011;33947;46.804;134.252;2023-07-08T07:11:37;7.03;;;2.42;;
46845;SDS011;33947;46.804;134.252;2023-07-08T07:14:43;7.03;;;2.30;;
46845;SDS011;33947;46.804;134.252;2023-07-08T07:17:51;7.63;;;2.33;;
46845;SDS011;33947;46.804;134.252;2023-07-08T07:20:58;8.90;;;2.65;;
46845;SDS011;33947;46.804;134.252;2023-07-08T07:24:06;12.23;;;2.40;;
46845;SDS011;33947;46.804;134.252;2023-07-08T07:30:15;4.40;;;2.30;;
46845;SDS011;33947;46.804;134.252;2023-07-08T07:33:22;6.47;;;2.40;;
46845;SDS011;33947;46.804;134.252;2023-07-08T07:36:28;8.15;;;2.10;;
46845;SDS011;33947;46.804;134.252;2023-07-08T07:39:34;10.43;;;2.70;;
46845;SDS011;33947;46.804;134.252;2023-07-08T07:42:44;3.78;;;2.60;;
46845;SDS011;33947;46.804;134.252;2023-07-08T07:45:51;10.52;;;5.32;;
46845;SDS011;33947;46.804;134.252;2023-07-08T07:48:59;9.30;;;3.63;;
46845;SDS011;33947;46.804;134.252;2023-07-08T07:52:05;8.02;;;3.20;;
46845;SDS011;33947;46.804;134.252;2023-07-08T07:55:12;4.82;;;2.83;;
46845;SDS011;33947;46.804;134.252;2023-07-08T07:58:18;9.43;;;3.65;;
46845;SDS011;33947;46.804;134.252;2023-07-08T08:01:25;5.50;;;3.90;;
46845;SDS011;33947;46.804;134.252;2023-07-08T08:04:31;8.73;;;3.17;;
46845;SDS011;33947;46.804;134.252;2023-07-08T08:07:37;9.85;;;3.00;;
46845;SDS011;33947;46.804;134.252;2023-07-08T08:10:43;5.68;;;2.90;;
46845;SDS011;33947;46.804;134.252;2023-07-08T08:13:50;7.70;;;2.70;;
46845;SDS011;33947;46.804;134.252;2023-07-08T08:16:56;7.68;;;2.80;;
46845;SDS011;33947;46.804;134.252;2023-07-08T08:20:03;5.00;;;2.53;;
46845;SDS011;33947;46.804;134.252;2023-07-08T08:23:10;14.77;;;3.38;;
46845;SDS011;33947;46.804;134.252;2023-07-08T08:26:16;6.80;;;2.67;;
46845;SDS011;33947;46.804;134.252;2023-07-08T08:29:22;8.02;;;3.60;;
46845;SDS011;33947;46.804;134.252;2023-07-08T08:32:27;16.63;;;3.47;;
46845;SDS011;33947;46.804;134.252;2023-07-08T08:35:33;7.22;;;2.90;;
46845;SDS011;33947;46.804;134.252;2023-07-08T08:38:39;5.47;;;2.80;;
46845;SDS011;33947;46.804;134.252;2023-07-08T08:41:46;9.30;;;2.85;;
46845;SDS011;33947;46.804;134.252;2023-07-08T08:44:56;12.88;;;3.50;;
46845;SDS011;33947;46.804;134.252;2023-07-08T08:48:10;7.30;;;3.00;;
46845;SDS011;33947;46.804;134.252;2023-07-08T08:51:19;9.18;;;3.17;;
46845;SDS011;33947;46.804;134.252;2023-07-08T08:54:25;12.00;;;3.05;;
46845;SDS011;33947;46.804;134.252;2023-07-08T08:57:54;12.55;;;2.90;;
46845;SDS011;33947;46.804;134.252;2023-07-08T09:01:36;8.30;;;3.00;;
46845;SDS011;33947;46.804;134.252;2023-07-08T09:04:48;10.40;;;3.30;;
46845;SDS011;33947;46.804;134.252;2023-07-08T09:11:10;12.70;;;3.80;;
46845;SDS011;33947;46.804;134.252;2023-07-08T09:14:28;17.63;;;4.55;;
46845;SDS011;33947;46.804;134.252;2023-07-08T09:17:36;11.90;;;3.65;;
46845;SDS011;33947;46.804;134.252;2023-07-08T09:20:44;7.68;;;3.72;;
46845;SDS011;33947;46.804;134.252;2023-07-08T09:23:55;99.95;;;8.98;;
46845;SDS011;33947;46.804;134.252;2023-07-08T09:27:29;11.40;;;4.38;;
46845;SDS011;33947;46.804;134.252;2023-07-08T09:30:36;7.03;;;4.10;;
46845;SDS011;33947;46.804;134.252;2023-07-08T09:33:40;30.25;;;4.50;;
46845;SDS011;33947;46.804;134.252;2023-07-08T09:39:53;16.20;;;4.47;;
46845;SDS011;33947;46.804;134.252;2023-07-08T09:46:42;12.55;;;4.53;;
46845;SDS011;33947;46.804;134.252;2023-07-08T09:49:50;18.63;;;4.50;;
46845;SDS011;33947;46.804;134.252;2023-07-08T09:52:58;9.43;;;4.30;;
46845;SDS011;33947;46.804;134.252;2023-07-08T09:56:08;9.50;;;5.10;;
46845;SDS011;33947;46.804;134.252;2023-07-08T09:59:15;17.73;;;4.85;;
46845;SDS011;33947;46.804;134.252;2023-07-08T10:02:28;8.20;;;4.57;;
46845;SDS011;33947;46.804;134.252;2023-07-08T10:05:42;14.20;;;5.90;;
46845;SDS011;33947;46.804;134.252;2023-07-08T10:08:49;14.20;;;5.80;;
46845;SDS011;33947;46.804;134.252;2023-07-08T10:12:00;12.82;;;5.38;;
46845;SDS011;33947;46.804;134.252;2023-07-08T10:15:17;12.93;;;5.43;;
46845;SDS011;33947;46.804;134.252;2023-07-08T10:18:35;13.65;;;5.25;;
46845;SDS011;33947;46.804;134.252;2023-07-08T10:25:06;22.35;;;4.80;;
46845;SDS011;33947;46.804;134.252;2023-07-08T10:28:35;15.23;;;5.05;;
46845;SDS011;33947;46.804;134.252;2023-07-08T10:35:34;13.43;;;5.53;;
46845;SDS011;33947;46.804;134.252;2023-07-08T11:09:56;16.52;;;6.68;;
46845;SDS011;33947;46.804;134.252;2023-07-08T11:13:11;24.17;;;8.48;;
46845;SDS011;33947;46.804;134.252;2023-07-08T11:16:24;18.85;;;6.25;;
46845;SDS011;33947;46.804;134.252;2023-07-08T11:19:38;17.33;;;6.18;;
46845;SDS011;33947;46.804;134.252;2023-07-08T11:22:53;13.32;;;5.88;;
46845;SDS011;33947;46.804;134.252;2023-07-08T11:26:16;11.88;;;5.20;;
46845;SDS011;33947;46.804;134.252;2023-07-08T11:29:59;17.27;;;6.38;;
46845;SDS011;33947;46.804;134.252;2023-07-08T11:33:04;15.63;;;8.20;;
46845;SDS011;33947;46.804;134.252;2023-07-08T11:36:14;22.77;;;6.50;;
46845;SDS011;33947;46.804;134.252;2023-07-08T11:39:31;17.00;;;5.60;;
46845;SDS011;33947;46.804;134.252;2023-07-08T11:42:41;19.50;;;5.88;;
46845;SDS011;33947;46.804;134.252;2023-07-08T11:46:02;15.32;;;6.93;;
46845;SDS011;33947;46.804;134.252;2023-07-08T11:49:13;17.88;;;8.15;;
46845;SDS011;33947;46.804;134.252;2023-07-08T11:52:22;22.63;;;9.82;;
46845;SDS011;33947;46.804;134.252;2023-07-08T12:02:19;12.68;;;6.75;;
46845;SDS011;33947;46.804;134.252;2023-07-08T12:05:35;16.23;;;6.25;;
46845;SDS011;33947;46.804;134.252;2023-07-08T12:08:43;9.30;;;6.18;;
46845;SDS011;33947;46.804;134.252;2023-07-08T12:11:57;13.98;;;7.28;;
46845;SDS011;33947;46.804;134.252;2023-07-08T12:15:25;17.00;;;6.70;;
46845;SDS011;33947;46.804;134.252;2023-07-08T12:18:37;21.88;;;7.85;;
46845;SDS011;33947;46.804;134.252;2023-07-08T12:21:51;8.97;;;6.40;;
46845;SDS011;33947;46.804;134.252;2023-07-08T12:24:58;27.65;;;5.95;;
46845;SDS011;33947;46.804;134.252;2023-07-08T12:28:10;15.52;;;4.97;;
46845;SDS011;33947;46.804;134.252;2023-07-08T12:31:21;16.48;;;6.60;;
46845;SDS011;33947;46.804;134.252;2023-07-08T12:34:28;16.88;;;6.35;;
46845;SDS011;33947;46.804;134.252;2023-07-08T12:37:33;16.38;;;6.50;;
46845;SDS011;33947;46.804;134.252;2023-07-08T12:40:41;10.48;;;6.38;;
46845;SDS011;33947;46.804;134.252;2023-07-08T12:43:48;14.13;;;7.03;;
46845;SDS011;33947;46.804;134.252;2023-07-08T12:47:00;18.40;;;6.35;;
46845;SDS011;33947;46.804;134.252;2023-07-08T12:50:09;13.50;;;6.15;;
46845;SDS011;33947;46.804;134.252;2023-07-08T12:53:16;12.73;;;5.57;;
46845;SDS011;33947;46.804;134.252;2023-07-08T12:56:22;17.55;;;6.28;;
46845;SDS011;33947;46.804;134.252;2023-07-08T12:59:30;11.65;;;6.13;;
46845;SDS011;33947;46.804;134.252;2023-07-08T13:02:36;14.38;;;6.38;;
46845;SDS011;33947;46.804;134.252;2023-07-08T13:05:45;12.85;;;6.60;;
46845;SDS011;33947;46.804;134.252;2023-07-08T13:08:52;18.67;;;6.10;;
46845;SDS011;33947;46.804;134.252;2023-07-08T13:12:12;10.23;;;5.50;;
46845;SDS011;33947;46.804;134.252;2023-07-08T13:15:23;11.60;;;5.35;;
46845;SDS011;33947;46.804;134.252;2023-07-08T13:18:42;14.52;;;6.18;;
46845;SDS011;33947;46.804;134.252;2023-07-08T13:21:49;8.77;;;5.43;;
46845;SDS011;33947;46.804;134.252;2023-07-08T13:25:00;11.93;;;5.47;;
46845;SDS011;33947;46.804;134.252;2023-07-08T13:28:16;6.45;;;5.18;;
46845;SDS011;33947;46.804;134.252;2023-07-08T13:31:24;8.65;;;5.80;;
46845;SDS011;33947;46.804;134.252;2023-07-08T13:34:39;8.82;;;5.20;;
46845;SDS011;33947;46.804;134.252;2023-07-08T13:37:44;10.38;;;5.78;;
46845;SDS011;33947;46.804;134.252;2023-07-08T13:40:55;10.23;;;6.10;;
46845;SDS011;33947;46.804;134.252;2023-07-08T13:44:05;10.77;;;5.30;;
46845;SDS011;33947;46.804;134.252;2023-07-08T13:47:27;12.73;;;5.55;;
46845;SDS011;33947;46.804;134.252;2023-07-08T13:50:44;13.75;;;6.55;;
46845;SDS011;33947;46.804;134.252;2023-07-08T13:53:59;7.72;;;5.40;;
46845;SDS011;33947;46.804;134.252;2023-07-08T13:57:10;10.15;;;5.72;;
46845;SDS011;33947;46.804;134.252;2023-07-08T14:00:23;14.68;;;6.15;;
46845;SDS011;33947;46.804;134.252;2023-07-08T14:03:32;10.82;;;6.07;;
46845;SDS011;33947;46.804;134.252;2023-07-08T14:06:39;12.82;;;6.43;;
46845;SDS011;33947;46.804;134.252;2023-07-08T14:09:46;11.57;;;6.40;;
46845;SDS011;33947;46.804;134.252;2023-07-08T14:12:53;10.75;;;5.95;;
46845;SDS011;33947;46.804;134.252;2023-07-08T14:15:59;13.55;;;6.57;;
46845;SDS011;33947;46.804;134.252;2023-07-08T14:19:10;19.13;;;6.35;;
46845;SDS011;33947;46.804;134.252;2023-07-08T14:22:27;11.27;;;5.85;;
46845;SDS011;33947;46.804;134.252;2023-07-08T14:25:34;9.70;;;5.75;;
46845;SDS011;33947;46.804;134.252;2023-07-08T14:28:44;10.10;;;5.35;;
46845;SDS011;33947;46.804;134.252;2023-07-08T14:31:52;10.13;;;6.00;;
46845;SDS011;33947;46.804;134.252;2023-07-08T14:35:14;14.38;;;5.95;;
46845;SDS011;33947;46.804;134.252;2023-07-08T14:38:25;10.88;;;6.05;;
46845;SDS011;33947;46.804;134.252;2023-07-08T14:41:32;9.68;;;6.05;;
46845;SDS011;33947;46.804;134.252;2023-07-08T14:44:43;9.43;;;5.50;;
46845;SDS011;33947;46.804;134.252;2023-07-08T14:47:54;8.93;;;5.50;;
46845;SDS011;33947;46.804;134.252;2023-07-08T14:51:01;11.82;;;5.60;;
46845;SDS011;33947;46.804;134.252;2023-07-08T14:54:08;7.80;;;4.70;;
46845;SDS011;33947;46.804;134.252;2023-07-08T14:57:13;8.90;;;5.47;;
46845;SDS011;33947;46.804;134.252;2023-07-08T15:00:21;9.63;;;5.00;;
46845;SDS011;33947;46.804;134.252;2023-07-08T15:03:28;13.13;;;5.40;;
46845;SDS011;33947;46.804;134.252;2023-07-08T15:06:33;11.25;;;5.88;;
46845;SDS011;33947;46.804;134.252;2023-07-08T15:09:39;9.70;;;5.97;;
46845;SDS011;33947;46.804;134.252;2023-07-08T15:12:46;11.07;;;5.43;;
46845;SDS011;33947;46.804;134.252;2023-07-08T15:15:54;13.20;;;5.97;;
46845;SDS011;33947;46.804;134.252;2023-07-08T15:19:01;11.93;;;6.53;;
46845;SDS011;33947;46.804;134.252;2023-07-08T15:22:08;16.08;;;7.30;;
46845;SDS011;33947;46.804;134.252;2023-07-08T15:25:15;11.85;;;6.43;;
46845;SDS011;33947;46.804;134.252;2023-07-08T15:28:33;18.17;;;6.63;;
46845;SDS011;33947;46.804;134.252;2023-07-08T15:31:52;12.57;;;6.07;;
46845;SDS011;33947;46.804;134.252;2023-07-08T15:34:59;14.85;;;6.72;;
46845;SDS011;33947;46.804;134.252;2023-07-08T15:38:06;15.50;;;6.53;;
46845;SDS011;33947;46.804;134.252;2023-07-08T15:41:28;18.42;;;7.15;;
46845;SDS011;33947;46.804;134.252;2023-07-08T15:44:36;11.80;;;6.10;;
46845;SDS011;33947;46.804;134.252;2023-07-08T15:47:44;15.45;;;6.97;;
46845;SDS011;33947;46.804;134.252;2023-07-08T15:50:50;11.95;;;5.90;;
46845;SDS011;33947;46.804;134.252;2023-07-08T15:53:56;11.50;;;5.93;;
46845;SDS011;33947;46.804;134.252;2023-07-08T15:57:03;11.68;;;6.00;;
46845;SDS011;33947;46.804;134.252;2023-07-08T16:00:12;13.25;;;6.20;;
46845;SDS011;33947;46.804;134.252;2023-07-08T16:03:30;12.00;;;6.07;;
46845;SDS011;33947;46.804;134.252;2023-07-08T16:06:50;11.65;;;5.60;;
46845;SDS011;33947;46.804;134.252;2023-07-08T16:09:56;15.77;;;5.95;;
46845;SDS011;33947;46.804;134.252;2023-07-08T16:13:08;8.02;;;5.45;;
46845;SDS011;33947;46.804;134.252;2023-07-08T16:16:19;11.80;;;5.70;;
46845;SDS011;33947;46.804;134.252;2023-07-08T16:19:30;12.77;;;6.35;;
46845;SDS011;33947;46.804;134.252;2023-07-08T16:22:39;10.57;;;5.80;;
46845;SDS011;33947;46.804;134.252;2023-07-08T16:25:47;12.02;;;5.85;;
46845;SDS011;33947;46.804;134.252;2023-07-08T16:28:55;11.85;;;5.53;;
46845;SDS011;33947;46.804;134.252;2023-07-08T16:32:02;8.85;;;5.93;;
46845;SDS011;33947;46.804;134.252;2023-07-08T16:35:14;9.32;;;6.00;;
46845;SDS011;33947;46.804;134.252;2023-07-08T16:38:23;9.88;;;6.32;;
46845;SDS011;33947;46.804;134.252;2023-07-08T16:41:31;9.05;;;5.35;;
46845;SDS011;33947;46.804;134.252;2023-07-08T16:44:41;11.93;;;5.47;;
46845;SDS011;33947;46.804;134.252;2023-07-08T16:47:50;10.95;;;5.82;;
46845;SDS011;33947;46.804;134.252;2023-07-08T16:51:01;11.13;;;5.15;;
46845;SDS011;33947;46.804;134.252;2023-07-08T16:54:15;9.70;;;5.28;;
46845;SDS011;33947;46.804;134.252;2023-07-08T16:57:33;7.97;;;4.82;;
46845;SDS011;33947;46.804;134.252;2023-07-08T17:00:42;10.80;;;4.55;;
46845;SDS011;33947;46.804;134.252;2023-07-08T17:03:50;8.88;;;5.35;;
46845;SDS011;33947;46.804;134.252;2023-07-08T17:07:02;10.93;;;5.50;;
46845;SDS011;33947;46.804;134.252;2023-07-08T17:10:11;13.73;;;5.30;;
46845;SDS011;33947;46.804;134.252;2023-07-08T17:13:18;12.73;;;5.30;;
46845;SDS011;33947;46.804;134.252;2023-07-08T17:16:29;8.30;;;5.25;;
46845;SDS011;33947;46.804;134.252;2023-07-08T17:19:40;8.05;;;4.85;;
46845;SDS011;33947;46.804;134.252;2023-07-08T17:22:47;10.93;;;5.18;;
46845;SDS011;33947;46.804;134.252;2023-07-08T17:25:54;8.23;;;4.60;;
46845;SDS011;33947;46.804;134.252;2023-07-08T17:29:00;6.65;;;4.28;;
46845;SDS011;33947;46.804;134.252;2023-07-08T17:32:07;5.70;;;4.22;;
46845;SDS011;33947;46.804;134.252;2023-07-08T17:35:18;6.82;;;3.80;;
46845;SDS011;33947;46.804;134.252;2023-07-08T17:41:53;5.45;;;3.58;;
46845;SDS011;33947;46.804;134.252;2023-07-08T17:44:59;5.10;;;4.05;;
46845;SDS011;33947;46.804;134.252;2023-07-08T17:48:11;4.70;;;3.97;;
46845;SDS011;33947;46.804;134.252;2023-07-08T17:51:32;3.83;;;3.00;;
46845;SDS011;33947;46.804;134.252;2023-07-08T17:54:39;3.95;;;3.25;;
46845;SDS011;33947;46.804;134.252;2023-07-08T17:57:48;5.43;;;3.30;;
46845;SDS011;33947;46.804;134.252;2023-07-08T18:00:56;4.82;;;3.63;;
46845;SDS011;33947;46.804;134.252;2023-07-08T18:04:02;5.97;;;3.42;;
46845;SDS011;33947;46.804;134.252;2023-07-08T18:07:10;4.93;;;3.30;;
46845;SDS011;33947;46.804;134.252;2023-07-08T18:10:16;5.33;;;3.10;;
46845;SDS011;33947;46.804;134.252;2023-07-08T18:13:24;5.10;;;3.22;;
46845;SDS011;33947;46.804;134.252;2023-07-08T18:16:33;6.18;;;3.70;;
46845;SDS011;33947;46.804;134.252;2023-07-08T18:19:45;9.13;;;4.03;;
46845;SDS011;33947;46.804;134.252;2023-07-08T18:22:52;6.88;;;4.18;;
46845;SDS011;33947;46.804;134.252;2023-07-08T18:25:59;7.88;;;3.65;;
46845;SDS011;33947;46.804;134.252;2023-07-08T18:29:05;6.90;;;4.25;;
46845;SDS011;33947;46.804;134.252;2023-07-08T18:32:12;4.28;;;3.67;;
46845;SDS011;33947;46.804;134.252;2023-07-08T18:35:23;4.88;;;3.65;;
46845;SDS011;33947;46.804;134.252;2023-07-08T18:38:34;3.97;;;3.55;;
46845;SDS011;33947;46.804;134.252;2023-07-08T18:41:45;4.70;;;3.78;;
46845;SDS011;33947;46.804;134.252;2023-07-08T18:44:53;5.97;;;3.80;;
46845;SDS011;33947;46.804;134.252;2023-07-08T18:47:59;6.47;;;3.97;;
46845;SDS011;33947;46.804;134.252;2023-07-08T18:51:12;5.85;;;3.92;;
46845;SDS011;33947;46.804;134.252;2023-07-08T18:54:23;4.18;;;3.50;;
46845;SDS011;33947;46.804;134.252;2023-07-08T18:57:30;4.75;;;3.75;;
46845;SDS011;33947;46.804;134.252;2023-07-08T19:00:38;6.00;;;3.60;;
46845;SDS011;33947;46.804;134.252;2023-07-08T19:03:45;6.90;;;3.50;;
46845;SDS011;33947;46.804;134.252;2023-07-08T19:06:51;4.18;;;3.47;;
46845;SDS011;33947;46.804;134.252;2023-07-08T19:09:58;4.50;;;3.22;;
46845;SDS011;33947;46.804;134.252;2023-07-08T19:13:21;5.43;;;3.58;;
46845;SDS011;33947;46.804;134.252;2023-07-08T19:16:29;5.78;;;4.18;;
46845;SDS011;33947;46.804;134.252;2023-07-08T19:19:38;11.30;;;4.53;;
46845;SDS011;33947;46.804;134.252;2023-07-08T19:22:45;15.43;;;7.43;;
46845;SDS011;33947;46.804;134.252;2023-07-08T19:25:53;9.93;;;7.15;;
46845;SDS011;33947;46.804;134.252;2023-07-08T19:29:01;17.08;;;9.30;;
46845;SDS011;33947;46.804;134.252;2023-07-08T19:32:13;16.77;;;10.05;;
46845;SDS011;33947;46.804;134.252;2023-07-08T19:35:22;17.42;;;10.73;;